sensor_id;sensor_type;location;lat;lon;timestamp;pressure;altitude;pressure_sealevel;temperature;humidity
66627;BME280;53498;50.422;14.912;2022-08-25T00:01:38;99386.03;;;18.69;100.00
66627;BME280;53498;50.422;14.912;2022-08-25T00:04:08;99385.41;;;18.60;100.00
66627;BME280;53498;50.422;14.912;2022-08-25T00:06:39;99381.19;;;18.54;100.00
66627;BME280;53498;50.422;14.912;2022-08-25T00:09:06;99381.19;;;18.54;100.00
66627;BME280;53498;50.422;14.912;2022-08-25T00:11:34;99382.81;;;18.58;100.00
66627;BME280;53498;50.422;14.912;2022-08-25T00:14:15;99386.41;;;18.56;100.00
66627;BME280;53498;50.422;14.912;2022-08-25T00:16:42;99376.75;;;18.55;100.00
66627;BME280;53498;50.422;14.912;2022-08-25T00:19:11;99379.47;;;18.53;100.00
66627;BME280;53498;50.422;14.912;2022-08-25T00:21:46;99387.34;;;18.53;100.00
66627;BME280;53498;50.422;14.912;2022-08-25T00:24:13;99376.03;;;18.49;100.00
66627;BME280;53498;50.422;14.912;2022-08-25T00:26:41;99375.22;;;18.47;100.00
66627;BME280;53498;50.422;14.912;2022-08-25T00:29:09;99380.69;;;18.40;100.00
66627;BME280;53498;50.422;14.912;2022-08-25T00:31:35;99381.47;;;18.43;100.00
66627;BME280;53498;50.422;14.912;2022-08-25T00:34:01;99377.19;;;18.39;100.00
66627;BME280;53498;50.422;14.912;2022-08-25T00:36:26;99381.50;;;18.42;100.00
66627;BME280;53498;50.422;14.912;2022-08-25T00:38:53;99378.22;;;18.34;100.00
66627;BME280;53498;50.422;14.912;2022-08-25T00:41:22;99376.47;;;18.33;100.00
66627;BME280;53498;50.422;14.912;2022-08-25T00:44:00;99383.41;;;18.37;100.00
66627;BME280;53498;50.422;14.912;2022-08-25T00:46:32;99377.31;;;18.35;100.00
66627;BME280;53498;50.422;14.912;2022-08-25T00:49:14;99388.84;;;18.31;100.00
66627;BME280;53498;50.422;14.912;2022-08-25T00:51:48;99386.31;;;18.26;100.00
66627;BME280;53498;50.422;14.912;2022-08-25T00:54:24;99375.78;;;18.26;100.00
66627;BME280;53498;50.422;14.912;2022-08-25T00:56:52;99378.47;;;18.24;100.00
66627;BME280;53498;50.422;14.912;2022-08-25T00:59:20;99379.50;;;18.17;100.00
66627;BME280;53498;50.422;14.912;2022-08-25T01:01:46;99377.88;;;18.13;100.00
66627;BME280;53498;50.422;14.912;2022-08-25T01:04:12;99385.84;;;18.10;100.00
66627;BME280;53498;50.422;14.912;2022-08-25T01:06:40;99372.66;;;18.12;100.00
66627;BME280;53498;50.422;14.912;2022-08-25T01:09:08;99383.97;;;18.15;100.00
66627;BME280;53498;50.422;14.912;2022-08-25T01:11:34;99374.38;;;18.13;100.00
66627;BME280;53498;50.422;14.912;2022-08-25T01:14:01;99376.16;;;18.12;100.00
66627;BME280;53498;50.422;14.912;2022-08-25T01:16:33;99379.59;;;18.14;100.00
66627;BME280;53498;50.422;14.912;2022-08-25T01:19:04;99378.16;;;18.02;100.00
66627;BME280;53498;50.422;14.912;2022-08-25T01:21:36;99379.09;;;18.00;100.00
66627;BME280;53498;50.422;14.912;2022-08-25T01:24:02;99373.69;;;18.06;100.00
66627;BME280;53498;50.422;14.912;2022-08-25T01:26:31;99373.91;;;17.97;100.00
66627;BME280;53498;50.422;14.912;2022-08-25T01:28:59;99375.63;;;17.98;100.00
66627;BME280;53498;50.422;14.912;2022-08-25T01:31:44;99372.06;;;18.00;100.00
66627;BME280;53498;50.422;14.912;2022-08-25T01:34:10;99375.38;;;18.09;100.00
66627;BME280;53498;50.422;14.912;2022-08-25T01:36:39;99371.91;;;18.07;100.00
66627;BME280;53498;50.422;14.912;2022-08-25T01:39:05;99373.94;;;17.95;100.00
66627;BME280;53498;50.422;14.912;2022-08-25T01:44:04;99364.25;;;17.97;100.00
66627;BME280;53498;50.422;14.912;2022-08-25T01:46:31;99369.34;;;18.03;100.00
66627;BME280;53498;50.422;14.912;2022-08-25T01:48:58;99374.63;;;18.03;100.00
66627;BME280;53498;50.422;14.912;2022-08-25T01:51:24;99370.13;;;18.07;100.00
66627;BME280;53498;50.422;14.912;2022-08-25T01:53:55;99369.13;;;18.13;100.00
66627;BME280;53498;50.422;14.912;2022-08-25T01:56:20;99357.56;;;18.18;100.00
66627;BME280;53498;50.422;14.912;2022-08-25T01:58:47;99361.72;;;18.27;100.00
66627;BME280;53498;50.422;14.912;2022-08-25T02:01:21;99366.03;;;18.30;100.00
66627;BME280;53498;50.422;14.912;2022-08-25T02:03:50;99366.63;;;18.39;100.00
66627;BME280;53498;50.422;14.912;2022-08-25T02:06:22;99362.19;;;18.43;100.00
66627;BME280;53498;50.422;14.912;2022-08-25T02:08:58;99358.63;;;18.44;100.00
66627;BME280;53498;50.422;14.912;2022-08-25T02:11:30;99361.44;;;18.38;100.00
66627;BME280;53498;50.422;14.912;2022-08-25T02:14:00;99358.78;;;18.38;100.00
66627;BME280;53498;50.422;14.912;2022-08-25T02:16:28;99355.41;;;18.33;100.00
66627;BME280;53498;50.422;14.912;2022-08-25T02:18:55;99356.31;;;18.32;100.00
66627;BME280;53498;50.422;14.912;2022-08-25T02:21:22;99351.97;;;18.31;100.00
66627;BME280;53498;50.422;14.912;2022-08-25T02:23:48;99359.63;;;18.40;100.00
66627;BME280;53498;50.422;14.912;2022-08-25T02:26:14;99357.25;;;18.31;100.00
66627;BME280;53498;50.422;14.912;2022-08-25T02:28:42;99357.16;;;18.34;100.00
66627;BME280;53498;50.422;14.912;2022-08-25T02:31:08;99353.06;;;18.22;100.00
66627;BME280;53498;50.422;14.912;2022-08-25T02:33:34;99345.03;;;18.26;100.00
66627;BME280;53498;50.422;14.912;2022-08-25T02:36:00;99344.97;;;18.30;100.00
66627;BME280;53498;50.422;14.912;2022-08-25T02:38:27;99351.22;;;18.25;100.00
66627;BME280;53498;50.422;14.912;2022-08-25T02:40:54;99348.50;;;18.29;100.00
66627;BME280;53498;50.422;14.912;2022-08-25T02:43:20;99345.00;;;18.28;100.00
66627;BME280;53498;50.422;14.912;2022-08-25T02:45:46;99344.09;;;18.29;100.00
66627;BME280;53498;50.422;14.912;2022-08-25T02:48:11;99351.06;;;18.32;100.00
66627;BME280;53498;50.422;14.912;2022-08-25T02:50:37;99351.13;;;18.29;100.00
66627;BME280;53498;50.422;14.912;2022-08-25T02:53:03;99344.97;;;18.30;100.00
66627;BME280;53498;50.422;14.912;2022-08-25T02:55:28;99340.78;;;18.22;100.00
66627;BME280;53498;50.422;14.912;2022-08-25T02:57:54;99340.75;;;18.24;100.00
66627;BME280;53498;50.422;14.912;2022-08-25T03:00:20;99338.19;;;18.21;100.00
66627;BME280;53498;50.422;14.912;2022-08-25T03:02:45;99342.41;;;18.26;100.00
66627;BME280;53498;50.422;14.912;2022-08-25T03:05:13;99333.78;;;18.21;100.00
66627;BME280;53498;50.422;14.912;2022-08-25T03:07:40;99337.13;;;18.26;100.00
66627;BME280;53498;50.422;14.912;2022-08-25T03:10:08;99337.13;;;18.28;100.00
66627;BME280;53498;50.422;14.912;2022-08-25T03:12:34;99332.63;;;18.32;100.00
66627;BME280;53498;50.422;14.912;2022-08-25T03:15:02;99335.13;;;18.36;100.00
66627;BME280;53498;50.422;14.912;2022-08-25T03:17:28;99335.56;;;18.21;100.00
66627;BME280;53498;50.422;14.912;2022-08-25T03:19:53;99327.59;;;18.22;100.00
66627;BME280;53498;50.422;14.912;2022-08-25T03:22:19;99325.97;;;18.18;100.00
66627;BME280;53498;50.422;14.912;2022-08-25T03:24:45;99329.47;;;18.17;100.00
66627;BME280;53498;50.422;14.912;2022-08-25T03:27:11;99332.00;;;18.22;100.00
66627;BME280;53498;50.422;14.912;2022-08-25T03:29:36;99326.66;;;18.25;100.00
66627;BME280;53498;50.422;14.912;2022-08-25T03:32:02;99330.00;;;18.32;100.00
66627;BME280;53498;50.422;14.912;2022-08-25T03:34:29;99329.00;;;18.36;100.00
66627;BME280;53498;50.422;14.912;2022-08-25T03:36:56;99322.88;;;18.35;100.00
66627;BME280;53498;50.422;14.912;2022-08-25T03:39:23;99319.31;;;18.36;100.00
66627;BME280;53498;50.422;14.912;2022-08-25T03:41:50;99325.56;;;18.34;100.00
66627;BME280;53498;50.422;14.912;2022-08-25T03:44:16;99307.84;;;18.39;100.00
66627;BME280;53498;50.422;14.912;2022-08-25T03:46:44;99319.31;;;18.36;100.00
66627;BME280;53498;50.422;14.912;2022-08-25T03:49:13;99305.25;;;18.37;100.00
66627;BME280;53498;50.422;14.912;2022-08-25T03:51:43;99313.88;;;18.42;100.00
66627;BME280;53498;50.422;14.912;2022-08-25T03:54:14;99308.69;;;18.39;100.00
66627;BME280;53498;50.422;14.912;2022-08-25T03:56:41;99315.88;;;18.34;100.00
66627;BME280;53498;50.422;14.912;2022-08-25T03:59:06;99316.75;;;18.35;100.00
66627;BME280;53498;50.422;14.912;2022-08-25T04:01:36;99304.41;;;18.37;100.00
66627;BME280;53498;50.422;14.912;2022-08-25T04:04:02;99305.94;;;18.44;100.00
66627;BME280;53498;50.422;14.912;2022-08-25T04:06:28;99308.66;;;18.41;100.00
66627;BME280;53498;50.422;14.912;2022-08-25T04:08:54;99316.56;;;18.41;100.00
66627;BME280;53498;50.422;14.912;2022-08-25T04:11:22;99310.44;;;18.40;100.00
66627;BME280;53498;50.422;14.912;2022-08-25T04:13:49;99305.94;;;18.44;100.00
66627;BME280;53498;50.422;14.912;2022-08-25T04:16:17;99300.75;;;18.41;100.00
66627;BME280;53498;50.422;14.912;2022-08-25T04:18:44;99297.91;;;18.48;100.00
66627;BME280;53498;50.422;14.912;2022-08-25T04:21:11;99306.63;;;18.50;100.00
66627;BME280;53498;50.422;14.912;2022-08-25T04:23:41;99314.50;;;18.52;100.00
66627;BME280;53498;50.422;14.912;2022-08-25T04:26:12;99309.88;;;18.60;100.00
66627;BME280;53498;50.422;14.912;2022-08-25T04:28:39;99312.31;;;18.66;100.00
66627;BME280;53498;50.422;14.912;2022-08-25T04:31:09;99310.47;;;18.70;100.00
66627;BME280;53498;50.422;14.912;2022-08-25T04:33:36;99308.53;;;18.77;100.00
66627;BME280;53498;50.422;14.912;2022-08-25T04:36:08;99307.59;;;18.79;100.00
66627;BME280;53498;50.422;14.912;2022-08-25T04:38:37;99310.38;;;18.75;100.00
66627;BME280;53498;50.422;14.912;2022-08-25T04:41:05;99312.19;;;18.72;100.00
66627;BME280;53498;50.422;14.912;2022-08-25T04:43:32;99304.75;;;18.87;100.00
66627;BME280;53498;50.422;14.912;2022-08-25T04:45:58;99306.00;;;19.03;99.10
66627;BME280;53498;50.422;14.912;2022-08-25T04:48:24;99307.81;;;19.01;98.69
66627;BME280;53498;50.422;14.912;2022-08-25T04:50:50;99304.31;;;19.01;98.79
66627;BME280;53498;50.422;14.912;2022-08-25T04:53:16;99302.59;;;19.00;98.64
66627;BME280;53498;50.422;14.912;2022-08-25T04:55:44;99299.88;;;19.03;98.08
66627;BME280;53498;50.422;14.912;2022-08-25T04:58:10;99305.06;;;19.04;98.03
66627;BME280;53498;50.422;14.912;2022-08-25T05:00:37;99308.06;;;19.22;97.98
66627;BME280;53498;50.422;14.912;2022-08-25T05:03:03;99304.69;;;19.16;97.10
66627;BME280;53498;50.422;14.912;2022-08-25T05:05:29;99305.06;;;19.32;96.59
66627;BME280;53498;50.422;14.912;2022-08-25T05:07:59;99306.16;;;19.53;95.13
66627;BME280;53498;50.422;14.912;2022-08-25T05:10:25;99306.84;;;19.58;93.96
66627;BME280;53498;50.422;14.912;2022-08-25T05:12:50;99299.00;;;19.57;94.83
66627;BME280;53498;50.422;14.912;2022-08-25T05:15:16;99297.94;;;19.62;93.93
66627;BME280;53498;50.422;14.912;2022-08-25T05:18:00;99303.38;;;19.58;94.01
66627;BME280;53498;50.422;14.912;2022-08-25T05:20:26;99308.44;;;19.66;93.70
66627;BME280;53498;50.422;14.912;2022-08-25T05:22:51;99302.97;;;19.72;93.84
66627;BME280;53498;50.422;14.912;2022-08-25T05:25:17;99298.00;;;19.61;93.66
66627;BME280;53498;50.422;14.912;2022-08-25T05:27:43;99303.38;;;19.58;93.98
66627;BME280;53498;50.422;14.912;2022-08-25T05:30:10;99307.13;;;19.51;94.01
66627;BME280;53498;50.422;14.912;2022-08-25T05:32:37;99310.78;;;19.47;94.21
66627;BME280;53498;50.422;14.912;2022-08-25T05:35:04;99318.03;;;19.40;95.50
66627;BME280;53498;50.422;14.912;2022-08-25T05:37:30;99317.78;;;19.48;95.39
66627;BME280;53498;50.422;14.912;2022-08-25T05:39:55;99308.84;;;19.52;95.50
66627;BME280;53498;50.422;14.912;2022-08-25T05:42:21;99318.13;;;19.63;94.93
66627;BME280;53498;50.422;14.912;2022-08-25T05:44:48;99318.03;;;19.68;94.00
66627;BME280;53498;50.422;14.912;2022-08-25T05:47:13;99314.28;;;19.75;93.61
66627;BME280;53498;50.422;14.912;2022-08-25T05:49:39;99316.91;;;19.75;93.42
66627;BME280;53498;50.422;14.912;2022-08-25T05:52:05;99323.13;;;19.99;92.97
66627;BME280;53498;50.422;14.912;2022-08-25T05:54:30;99312.31;;;20.32;91.52
66627;BME280;53498;50.422;14.912;2022-08-25T05:56:57;99310.00;;;20.46;89.78
66627;BME280;53498;50.422;14.912;2022-08-25T05:59:22;99306.22;;;20.78;89.66
66627;BME280;53498;50.422;14.912;2022-08-25T06:01:48;99299.41;;;20.95;88.47
66627;BME280;53498;50.422;14.912;2022-08-25T06:04:32;99302.72;;;20.78;86.83
66627;BME280;53498;50.422;14.912;2022-08-25T06:07:04;99308.25;;;20.72;87.91
66627;BME280;53498;50.422;14.912;2022-08-25T06:09:29;99307.69;;;20.86;87.91
66627;BME280;53498;50.422;14.912;2022-08-25T06:11:55;99300.00;;;20.79;87.29
66627;BME280;53498;50.422;14.912;2022-08-25T06:14:21;99306.50;;;20.71;86.75
66627;BME280;53498;50.422;14.912;2022-08-25T06:16:47;99293.72;;;20.59;87.44
66627;BME280;53498;50.422;14.912;2022-08-25T06:19:17;99287.97;;;20.47;89.07
66627;BME280;53498;50.422;14.912;2022-08-25T06:21:43;99295.25;;;20.41;88.86
66627;BME280;53498;50.422;14.912;2022-08-25T06:24:09;99295.03;;;20.47;90.06
66627;BME280;53498;50.422;14.912;2022-08-25T06:26:36;99295.75;;;20.75;88.70
66627;BME280;53498;50.422;14.912;2022-08-25T06:29:02;99294.13;;;20.95;87.14
66627;BME280;53498;50.422;14.912;2022-08-25T06:31:28;99295.19;;;21.13;86.03
66627;BME280;53498;50.422;14.912;2022-08-25T06:33:53;99301.13;;;21.41;86.80
66627;BME280;53498;50.422;14.912;2022-08-25T06:36:19;99292.41;;;21.82;84.03
66627;BME280;53498;50.422;14.912;2022-08-25T06:38:45;99289.56;;;22.07;82.19
66627;BME280;53498;50.422;14.912;2022-08-25T06:41:11;99293.84;;;22.31;81.76
66627;BME280;53498;50.422;14.912;2022-08-25T06:43:39;99288.63;;;22.49;79.59
66627;BME280;53498;50.422;14.912;2022-08-25T06:46:14;99290.72;;;22.61;81.26
66627;BME280;53498;50.422;14.912;2022-08-25T06:48:40;99299.34;;;22.85;79.44
66627;BME280;53498;50.422;14.912;2022-08-25T06:51:08;99303.16;;;22.98;77.11
66627;BME280;53498;50.422;14.912;2022-08-25T06:53:35;99307.91;;;22.90;77.96
66627;BME280;53498;50.422;14.912;2022-08-25T06:56:01;99301.75;;;22.90;77.02
66627;BME280;53498;50.422;14.912;2022-08-25T06:58:27;99301.75;;;23.27;76.47
66627;BME280;53498;50.422;14.912;2022-08-25T07:00:53;99298.28;;;23.08;74.97
66627;BME280;53498;50.422;14.912;2022-08-25T07:03:18;99298.00;;;22.56;77.10
66627;BME280;53498;50.422;14.912;2022-08-25T07:05:54;99295.56;;;22.51;78.17
66627;BME280;53498;50.422;14.912;2022-08-25T07:08:20;99297.66;;;22.45;78.08
66627;BME280;53498;50.422;14.912;2022-08-25T07:10:47;99296.84;;;22.43;78.11
66627;BME280;53498;50.422;14.912;2022-08-25T07:13:12;99299.41;;;22.25;78.90
66627;BME280;53498;50.422;14.912;2022-08-25T07:15:38;99305.19;;;22.33;80.40
66627;BME280;53498;50.422;14.912;2022-08-25T07:18:07;99303.81;;;22.45;78.47
66627;BME280;53498;50.422;14.912;2022-08-25T07:20:37;99299.19;;;22.69;77.58
66627;BME280;53498;50.422;14.912;2022-08-25T07:23:04;99298.19;;;23.09;76.27
66627;BME280;53498;50.422;14.912;2022-08-25T07:25:29;99308.53;;;23.52;75.92
66627;BME280;53498;50.422;14.912;2022-08-25T07:27:55;99309.47;;;23.15;75.16
66627;BME280;53498;50.422;14.912;2022-08-25T07:30:21;99309.97;;;23.23;75.33
66627;BME280;53498;50.422;14.912;2022-08-25T07:32:47;99307.25;;;23.78;73.68
66627;BME280;53498;50.422;14.912;2022-08-25T07:35:13;99304.34;;;23.65;72.30
66627;BME280;53498;50.422;14.912;2022-08-25T07:37:48;99307.97;;;23.45;73.45
66627;BME280;53498;50.422;14.912;2022-08-25T07:40:20;99298.16;;;23.47;74.00
66627;BME280;53498;50.422;14.912;2022-08-25T07:42:51;99299.88;;;23.48;74.61
66627;BME280;53498;50.422;14.912;2022-08-25T07:45:18;99296.81;;;23.56;73.43
66627;BME280;53498;50.422;14.912;2022-08-25T07:47:44;99293.91;;;23.80;72.53
66627;BME280;53498;50.422;14.912;2022-08-25T07:50:11;99285.06;;;23.96;72.12
66627;BME280;53498;50.422;14.912;2022-08-25T07:52:38;99282.50;;;23.77;72.18
66627;BME280;53498;50.422;14.912;2022-08-25T07:55:12;99280.31;;;24.03;72.27
66627;BME280;53498;50.422;14.912;2022-08-25T07:57:39;99280.94;;;23.73;71.12
66627;BME280;53498;50.422;14.912;2022-08-25T08:00:06;99282.53;;;23.41;72.87
66627;BME280;53498;50.422;14.912;2022-08-25T08:02:32;99274.22;;;23.84;72.34
66627;BME280;53498;50.422;14.912;2022-08-25T08:04:58;99267.00;;;24.20;71.24
66627;BME280;53498;50.422;14.912;2022-08-25T08:07:25;99258.06;;;24.39;69.98
66627;BME280;53498;50.422;14.912;2022-08-25T08:09:51;99256.03;;;24.27;69.24
66627;BME280;53498;50.422;14.912;2022-08-25T08:12:18;99253.22;;;24.30;70.14
66627;BME280;53498;50.422;14.912;2022-08-25T08:14:44;99260.09;;;24.51;68.62
66627;BME280;53498;50.422;14.912;2022-08-25T08:17:11;99266.63;;;24.77;68.99
66627;BME280;53498;50.422;14.912;2022-08-25T08:19:37;99251.97;;;24.86;65.41
66627;BME280;53498;50.422;14.912;2022-08-25T08:22:04;99255.31;;;24.89;64.34
66627;BME280;53498;50.422;14.912;2022-08-25T08:24:31;99256.16;;;25.06;65.42
66627;BME280;53498;50.422;14.912;2022-08-25T08:26:57;99254.00;;;24.97;64.75
66627;BME280;53498;50.422;14.912;2022-08-25T08:29:23;99252.06;;;25.16;63.39
66627;BME280;53498;50.422;14.912;2022-08-25T08:31:48;99248.47;;;25.17;61.96
66627;BME280;53498;50.422;14.912;2022-08-25T08:34:14;99247.03;;;25.10;62.86
66627;BME280;53498;50.422;14.912;2022-08-25T08:36:40;99243.97;;;25.33;63.38
66627;BME280;53498;50.422;14.912;2022-08-25T08:39:05;99249.56;;;25.59;61.24
66627;BME280;53498;50.422;14.912;2022-08-25T08:41:48;99249.75;;;25.56;60.48
66627;BME280;53498;50.422;14.912;2022-08-25T08:44:47;99243.34;;;25.44;60.33
66627;BME280;53498;50.422;14.912;2022-08-25T08:49:48;99240.25;;;25.52;60.81
66627;BME280;53498;50.422;14.912;2022-08-25T08:52:22;99239.22;;;25.54;60.91
66627;BME280;53498;50.422;14.912;2022-08-25T08:54:57;99241.06;;;25.98;60.97
66627;BME280;53498;50.422;14.912;2022-08-25T08:57:27;99234.63;;;25.56;59.20
66627;BME280;53498;50.422;14.912;2022-08-25T08:59:57;99235.69;;;25.84;59.36
66627;BME280;53498;50.422;14.912;2022-08-25T09:05:14;99235.47;;;25.57;58.69
66627;BME280;53498;50.422;14.912;2022-08-25T09:07:47;99231.91;;;26.02;58.58
66627;BME280;53498;50.422;14.912;2022-08-25T09:10:18;99228.00;;;26.22;58.02
66627;BME280;53498;50.422;14.912;2022-08-25T09:12:48;99230.50;;;26.54;57.32
66627;BME280;53498;50.422;14.912;2022-08-25T09:24:27;99225.06;;;27.11;57.06
66627;BME280;53498;50.422;14.912;2022-08-25T09:27:09;99218.59;;;26.31;55.38
66627;BME280;53498;50.422;14.912;2022-08-25T09:29:59;99211.72;;;25.98;56.37
66627;BME280;53498;50.422;14.912;2022-08-25T09:32:28;99211.53;;;26.16;56.20
66627;BME280;53498;50.422;14.912;2022-08-25T09:34:55;99204.47;;;26.29;55.56
66627;BME280;53498;50.422;14.912;2022-08-25T09:37:23;99210.00;;;26.40;56.05
66627;BME280;53498;50.422;14.912;2022-08-25T09:39:49;99206.69;;;26.37;56.42
66627;BME280;53498;50.422;14.912;2022-08-25T09:42:46;99200.13;;;26.28;56.99
66627;BME280;53498;50.422;14.912;2022-08-25T09:45:13;99198.78;;;26.49;56.35
66627;BME280;53498;50.422;14.912;2022-08-25T09:47:44;99197.63;;;26.53;55.57
66627;BME280;53498;50.422;14.912;2022-08-25T09:50:18;99196.00;;;26.65;56.09
66627;BME280;53498;50.422;14.912;2022-08-25T09:52:44;99196.47;;;26.43;56.60
66627;BME280;53498;50.422;14.912;2022-08-25T10:00:11;99181.63;;;26.68;55.75
66627;BME280;53498;50.422;14.912;2022-08-25T10:02:37;99183.31;;;26.69;55.72
66627;BME280;53498;50.422;14.912;2022-08-25T10:05:24;99178.06;;;27.09;55.08
66627;BME280;53498;50.422;14.912;2022-08-25T10:07:54;99173.34;;;27.27;55.02
66627;BME280;53498;50.422;14.912;2022-08-25T10:10:31;99157.66;;;27.48;55.30
66627;BME280;53498;50.422;14.912;2022-08-25T10:12:57;99155.06;;;27.20;54.04
66627;BME280;53498;50.422;14.912;2022-08-25T10:17:53;99156.66;;;26.96;55.44
66627;BME280;53498;50.422;14.912;2022-08-25T10:20:22;99154.34;;;26.77;56.03
66627;BME280;53498;50.422;14.912;2022-08-25T10:22:48;99147.25;;;26.76;56.22
66627;BME280;53498;50.422;14.912;2022-08-25T10:25:18;99132.94;;;27.31;55.15
66627;BME280;53498;50.422;14.912;2022-08-25T10:31:06;99139.69;;;27.24;56.26
66627;BME280;53498;50.422;14.912;2022-08-25T10:36:27;99133.78;;;27.19;56.08
66627;BME280;53498;50.422;14.912;2022-08-25T10:38:57;99143.97;;;27.39;56.19
66627;BME280;53498;50.422;14.912;2022-08-25T10:50:25;99131.38;;;27.02;56.83
66627;BME280;53498;50.422;14.912;2022-08-25T11:00:45;99115.94;;;27.32;55.90
66627;BME280;53498;50.422;14.912;2022-08-25T11:06:04;99113.25;;;27.19;56.72
66627;BME280;53498;50.422;14.912;2022-08-25T11:08:37;99099.41;;;27.00;57.57
66627;BME280;53498;50.422;14.912;2022-08-25T11:11:09;99109.03;;;27.03;57.09
66627;BME280;53498;50.422;14.912;2022-08-25T11:13:48;99104.16;;;26.82;57.95
66627;BME280;53498;50.422;14.912;2022-08-25T11:16:32;99093.03;;;27.03;57.04
66627;BME280;53498;50.422;14.912;2022-08-25T11:19:36;99101.59;;;27.08;57.02
66627;BME280;53498;50.422;14.912;2022-08-25T11:24:59;99090.78;;;27.49;56.88
66627;BME280;53498;50.422;14.912;2022-08-25T11:27:37;99094.28;;;27.75;56.10
66627;BME280;53498;50.422;14.912;2022-08-25T11:30:11;99091.72;;;27.48;55.36
66627;BME280;53498;50.422;14.912;2022-08-25T11:32:38;99082.97;;;27.84;54.83
66627;BME280;53498;50.422;14.912;2022-08-25T11:35:07;99093.88;;;27.81;54.84
66627;BME280;53498;50.422;14.912;2022-08-25T11:37:40;99091.06;;;27.70;54.68
66627;BME280;53498;50.422;14.912;2022-08-25T11:40:25;99090.03;;;27.85;54.44
66627;BME280;53498;50.422;14.912;2022-08-25T11:42:59;99095.25;;;27.74;54.48
66627;BME280;53498;50.422;14.912;2022-08-25T11:51:47;99080.72;;;27.91;54.04
66627;BME280;53498;50.422;14.912;2022-08-25T11:57:00;99084.81;;;28.33;54.34
66627;BME280;53498;50.422;14.912;2022-08-25T12:02:33;99077.66;;;28.58;53.38
66627;BME280;53498;50.422;14.912;2022-08-25T12:05:02;99068.84;;;28.69;53.63
66627;BME280;53498;50.422;14.912;2022-08-25T12:07:56;99067.84;;;28.94;53.73
66627;BME280;53498;50.422;14.912;2022-08-25T12:11:03;99060.56;;;28.96;52.24
66627;BME280;53498;50.422;14.912;2022-08-25T12:16:02;99049.50;;;28.76;52.56
66627;BME280;53498;50.422;14.912;2022-08-25T12:26:40;99045.50;;;28.47;51.50
66627;BME280;53498;50.422;14.912;2022-08-25T12:37:23;99047.13;;;28.36;52.73
66627;BME280;53498;50.422;14.912;2022-08-25T12:42:30;99041.63;;;28.51;51.46
66627;BME280;53498;50.422;14.912;2022-08-25T12:47:42;99034.56;;;28.50;50.24
66627;BME280;53498;50.422;14.912;2022-08-25T12:50:28;99033.88;;;28.59;51.33
66627;BME280;53498;50.422;14.912;2022-08-25T12:53:29;99025.69;;;28.12;52.26
66627;BME280;53498;50.422;14.912;2022-08-25T12:56:04;99018.91;;;28.20;52.81
66627;BME280;53498;50.422;14.912;2022-08-25T13:01:25;99010.47;;;28.50;52.67
66627;BME280;53498;50.422;14.912;2022-08-25T13:04:14;99020.78;;;28.43;52.36
66627;BME280;53498;50.422;14.912;2022-08-25T13:13:05;99014.19;;;28.23;52.24
66627;BME280;53498;50.422;14.912;2022-08-25T13:15:42;99012.34;;;28.00;52.24
66627;BME280;53498;50.422;14.912;2022-08-25T13:18:25;99009.97;;;28.08;52.91
66627;BME280;53498;50.422;14.912;2022-08-25T13:20:54;99010.84;;;28.32;52.19
66627;BME280;53498;50.422;14.912;2022-08-25T13:23:26;99004.50;;;28.46;51.91
66627;BME280;53498;50.422;14.912;2022-08-25T13:25:53;99003.06;;;28.77;51.71
66627;BME280;53498;50.422;14.912;2022-08-25T13:28:31;99001.41;;;28.99;49.82
66627;BME280;53498;50.422;14.912;2022-08-25T13:31:08;99001.47;;;29.21;48.00
66627;BME280;53498;50.422;14.912;2022-08-25T13:33:35;98991.00;;;29.41;48.08
66627;BME280;53498;50.422;14.912;2022-08-25T13:36:01;98988.56;;;29.38;47.86
66627;BME280;53498;50.422;14.912;2022-08-25T13:38:47;98981.50;;;29.25;48.77
66627;BME280;53498;50.422;14.912;2022-08-25T13:41:19;98976.53;;;29.21;49.08
66627;BME280;53498;50.422;14.912;2022-08-25T13:43:46;98977.97;;;29.36;49.08
66627;BME280;53498;50.422;14.912;2022-08-25T13:46:11;98975.41;;;29.23;49.39
66627;BME280;53498;50.422;14.912;2022-08-25T13:48:39;98966.75;;;29.20;49.26
66627;BME280;53498;50.422;14.912;2022-08-25T13:51:15;98965.63;;;29.11;49.82
66627;BME280;53498;50.422;14.912;2022-08-25T13:53:48;98965.09;;;28.83;50.25
66627;BME280;53498;50.422;14.912;2022-08-25T13:56:22;98966.56;;;28.88;49.24
66627;BME280;53498;50.422;14.912;2022-08-25T13:58:48;98957.53;;;28.77;48.30
66627;BME280;53498;50.422;14.912;2022-08-25T14:01:16;98964.94;;;28.74;48.33
66627;BME280;53498;50.422;14.912;2022-08-25T14:03:45;98962.75;;;28.79;47.46
66627;BME280;53498;50.422;14.912;2022-08-25T14:08:43;98959.88;;;28.58;48.30
66627;BME280;53498;50.422;14.912;2022-08-25T14:14:07;98950.69;;;28.73;47.92
66627;BME280;53498;50.422;14.912;2022-08-25T14:19:13;98937.19;;;29.21;47.12
66627;BME280;53498;50.422;14.912;2022-08-25T14:21:39;98932.72;;;28.98;47.31
66627;BME280;53498;50.422;14.912;2022-08-25T14:24:05;98945.44;;;29.07;47.68
66627;BME280;53498;50.422;14.912;2022-08-25T14:26:32;98935.66;;;28.83;47.75
66627;BME280;53498;50.422;14.912;2022-08-25T14:28:57;98930.09;;;29.09;47.10
66627;BME280;53498;50.422;14.912;2022-08-25T14:31:26;98933.25;;;29.03;47.26
66627;BME280;53498;50.422;14.912;2022-08-25T14:34:02;98931.09;;;29.19;46.98
66627;BME280;53498;50.422;14.912;2022-08-25T14:36:30;98931.44;;;29.48;46.62
66627;BME280;53498;50.422;14.912;2022-08-25T14:38:58;98939.56;;;29.58;45.38
66627;BME280;53498;50.422;14.912;2022-08-25T14:41:24;98937.66;;;29.49;43.44
66627;BME280;53498;50.422;14.912;2022-08-25T14:43:51;98936.69;;;29.50;43.28